createdAt,value
2016-04-04T00:00:06.687Z,0
2016-04-04T00:01:06.659Z,0
2016-04-04T00:02:06.583Z,0
2016-04-04T00:03:06.555Z,0
2016-04-04T00:04:06.495Z,0
2016-04-04T00:05:06.482Z,0
2016-04-04T00:06:06.265Z,0
2016-04-04T00:07:06.347Z,0
2016-04-04T00:08:06.287Z,0
2016-04-04T00:09:06.258Z,0
2016-04-04T00:10:06.230Z,0
2016-04-04T00:11:06.170Z,0
2016-04-04T00:12:06.095Z,0
2016-04-04T00:13:06.050Z,0
2016-04-04T00:14:06.006Z,0
2016-04-04T00:15:05.962Z,0
2016-04-04T00:16:05.918Z,0
2016-04-04T00:17:05.858Z,0
2016-04-04T00:18:05.813Z,0
2016-04-04T00:19:05.769Z,0
2016-04-04T00:20:05.788Z,0
2016-04-04T00:21:05.681Z,0
2016-04-04T00:22:05.622Z,0
2016-04-04T00:23:05.546Z,0
2016-04-04T00:24:05.533Z,0
2016-04-04T00:25:05.504Z,0
2016-04-04T00:26:05.413Z,0
2016-04-04T00:27:05.385Z,0
2016-04-04T00:28:05.310Z,0
2016-04-04T00:29:05.312Z,0
2016-04-04T00:30:05.252Z,0
2016-04-04T00:31:05.207Z,0
2016-04-04T00:32:05.148Z,0
2016-04-04T00:33:05.073Z,0
2016-04-04T00:34:05.029Z,0
2016-04-04T00:35:05.000Z,0
2016-04-04T00:36:04.940Z,0
2016-04-04T00:37:04.880Z,0
2016-04-04T00:38:04.851Z,0
2016-04-04T00:39:04.777Z,0
2016-04-04T00:40:04.747Z,0
2016-04-04T00:41:04.689Z,0
2016-04-04T00:42:04.659Z,0
2016-04-04T00:43:04.614Z,0
2016-04-04T00:44:04.571Z,0
2016-04-04T00:45:04.496Z,0
2016-04-04T00:46:03.717Z,0
2016-04-04T00:47:04.470Z,0
2016-04-04T00:48:04.363Z,0
2016-04-04T00:49:03.569Z,0
2016-04-04T00:50:04.290Z,0
2016-04-04T00:51:04.230Z,0
2016-04-04T00:52:04.155Z,0
2016-04-04T00:53:04.142Z,0
2016-04-04T00:54:04.082Z,0
2016-04-04T00:55:04.007Z,0
2016-04-04T00:56:03.963Z,0
2016-04-04T00:57:03.935Z,0
2016-04-04T00:58:03.874Z,0
2016-04-04T00:59:03.846Z,0
2016-04-04T01:00:03.785Z,0
2016-04-04T01:01:03.726Z,0
2016-04-04T01:02:03.698Z,0
2016-04-04T01:03:03.607Z,0
2016-04-04T01:04:03.579Z,0
2016-04-04T01:05:03.534Z,0
2016-04-04T01:06:03.490Z,0
2016-04-04T01:07:03.415Z,0
2016-04-04T01:08:03.371Z,0
2016-04-04T01:09:03.326Z,0
2016-04-04T01:10:03.298Z,0
2016-04-04T01:11:03.363Z,0
2016-04-04T01:12:03.193Z,0
2016-04-04T01:13:03.118Z,0
2016-04-04T01:14:03.089Z,0
2016-04-04T01:15:03.030Z,0
2016-04-04T01:16:03.001Z,0
2016-04-04T01:17:02.925Z,0
2016-04-04T01:18:02.897Z,0
2016-04-04T01:19:02.853Z,0
2016-04-04T01:20:02.793Z,0
2016-04-04T01:21:02.764Z,0
2016-04-04T01:22:02.689Z,0
2016-04-04T01:23:02.630Z,0
2016-04-04T01:24:02.586Z,0
2016-04-04T01:25:02.541Z,0
2016-04-04T01:26:02.497Z,0
2016-04-04T01:27:02.437Z,0
2016-04-04T01:28:02.393Z,0
2016-04-04T01:29:02.363Z,0
2016-04-04T01:30:02.288Z,0
2016-04-04T01:31:02.244Z,0
2016-04-04T01:32:02.185Z,0
2016-04-04T01:33:02.157Z,0
2016-04-04T01:34:02.096Z,0
2016-04-04T01:35:02.068Z,0
2016-04-04T01:36:02.008Z,0
2016-04-04T01:37:01.949Z,0
2016-04-04T01:38:01.920Z,0
2016-04-04T01:39:01.860Z,0
2016-04-04T01:40:01.816Z,0
2016-04-04T01:41:01.740Z,0
2016-04-04T01:42:01.712Z,0
2016-04-04T01:43:01.651Z,0
2016-04-04T01:44:01.623Z,0
2016-04-04T01:45:00.814Z,0
2016-04-04T01:46:01.503Z,0
2016-04-04T01:47:01.444Z,0
2016-04-04T01:48:01.414Z,0
2016-04-04T01:49:01.355Z,0
2016-04-04T01:50:01.327Z,0
2016-04-04T01:51:01.266Z,0
2016-04-04T01:52:01.207Z,0
2016-04-04T01:53:01.163Z,0
2016-04-04T01:54:01.118Z,0
2016-04-04T01:55:01.058Z,0
2016-04-04T01:56:00.999Z,0
2016-04-04T01:57:00.971Z,0
2016-04-04T01:58:00.910Z,0
2016-04-04T01:59:00.851Z,0
2016-04-04T02:00:00.822Z,0
2016-04-04T02:01:00.768Z,0
2016-04-04T02:02:00.740Z,0
2016-04-04T02:03:00.679Z,0
2016-04-04T02:04:00.620Z,0
2016-04-04T02:05:00.575Z,0
2016-04-04T02:06:00.515Z,0
2016-04-04T02:07:00.471Z,0
2016-04-04T02:08:00.426Z,0
2016-04-04T02:09:00.383Z,0
2016-04-04T02:10:00.320Z,0
2016-04-04T02:11:00.292Z,0
2016-04-04T02:12:00.248Z,0
2016-04-04T02:13:00.203Z,0
2016-04-04T02:14:00.144Z,0
2016-04-04T02:15:00.084Z,0
2016-04-04T02:16:00.056Z,0
2016-04-04T02:17:00.027Z,0
2016-04-04T02:17:59.936Z,0
2016-04-04T02:18:59.875Z,0
2016-04-04T02:19:59.847Z,0
2016-04-04T02:20:59.772Z,0
2016-04-04T02:21:59.775Z,0
2016-04-04T02:22:59.669Z,0
2016-04-04T02:23:59.639Z,0
2016-04-04T02:24:58.830Z,0
2016-04-04T02:25:58.801Z,0
2016-04-04T02:26:59.460Z,0
2016-04-04T02:27:59.432Z,0
2016-04-04T02:28:59.403Z,0
2016-04-04T02:29:59.358Z,0
2016-04-04T02:30:59.283Z,0
2016-04-04T02:31:59.224Z,0
2016-04-04T02:32:59.179Z,0
2016-04-04T02:33:59.369Z,0
2016-04-04T02:34:59.091Z,0
2016-04-04T02:35:59.031Z,0
2016-04-04T02:36:58.987Z,0
2016-04-04T02:37:58.943Z,0
2016-04-04T02:38:58.882Z,0
2016-04-04T02:39:58.854Z,0
2016-04-04T02:40:58.795Z,0
2016-04-04T02:41:58.750Z,0
2016-04-04T02:42:58.690Z,0
2016-04-04T02:43:58.678Z,0
2016-04-04T02:44:58.618Z,0
2016-04-04T02:45:58.558Z,0
2016-04-04T02:46:58.498Z,0
2016-04-04T02:47:58.423Z,0
2016-04-04T02:48:58.394Z,0
2016-04-04T02:49:58.459Z,0
2016-04-04T02:50:58.289Z,0
2016-04-04T02:51:58.246Z,0
2016-04-04T02:52:58.186Z,0
2016-04-04T02:53:58.126Z,0
2016-04-04T02:54:58.097Z,0
2016-04-04T02:55:58.038Z,0
2016-04-04T02:56:57.977Z,0
2016-04-04T02:57:57.966Z,0
2016-04-04T02:58:57.905Z,0
2016-04-04T02:59:57.846Z,0
2016-04-04T03:00:57.801Z,0
2016-04-04T03:01:57.758Z,0
2016-04-04T03:02:57.697Z,0
2016-04-04T03:03:57.637Z,0
2016-04-04T03:04:57.594Z,0
2016-04-04T03:05:57.565Z,0
2016-04-04T03:06:57.474Z,0
2016-04-04T03:07:57.438Z,0
2016-04-04T03:08:57.394Z,0
2016-04-04T03:09:57.366Z,0
2016-04-04T03:10:57.274Z,0
2016-04-04T03:11:57.230Z,0
2016-04-04T03:12:57.186Z,0
2016-04-04T03:13:57.157Z,0
2016-04-04T03:14:57.098Z,0
2016-04-04T03:15:57.085Z,0
2016-04-04T03:16:56.993Z,0
2016-04-04T03:17:56.949Z,0
2016-04-04T03:18:56.890Z,0
2016-04-04T03:19:56.955Z,0
2016-04-04T03:20:56.051Z,0
2016-04-04T03:21:56.742Z,0
2016-04-04T03:22:56.698Z,0
2016-04-04T03:23:56.653Z,0
2016-04-04T03:24:56.593Z,0
2016-04-04T03:25:56.550Z,0
2016-04-04T03:26:56.489Z,0
2016-04-04T03:27:56.445Z,0
2016-04-04T03:28:56.401Z,0
2016-04-04T03:29:56.341Z,0
2016-04-04T03:30:56.297Z,0
2016-04-04T03:31:56.237Z,0
2016-04-04T03:32:56.208Z,0
2016-04-04T03:33:56.133Z,0
2016-04-04T03:34:56.120Z,0
2016-04-04T03:35:56.045Z,0
2016-04-04T03:36:56.000Z,0
2016-04-04T03:37:55.941Z,0
2016-04-04T03:38:55.913Z,0
2016-04-04T03:39:55.869Z,0
2016-04-04T03:40:55.808Z,0
2016-04-04T03:41:55.732Z,0
2016-04-04T03:42:55.689Z,0
2016-04-04T03:43:55.644Z,0
2016-04-04T03:44:55.600Z,0
2016-04-04T03:45:55.525Z,0
2016-04-04T03:46:55.497Z,0
2016-04-04T03:47:55.452Z,0
2016-04-04T03:48:55.392Z,0
2016-04-04T03:49:55.349Z,0
2016-04-04T03:50:55.288Z,0
2016-04-04T03:51:55.228Z,0
2016-04-04T03:52:55.215Z,0
2016-04-04T03:53:55.156Z,0
2016-04-04T03:54:55.096Z,0
2016-04-04T03:55:55.083Z,0
2016-04-04T03:56:54.992Z,0
2016-04-04T03:57:54.979Z,0
2016-04-04T03:58:54.951Z,0
2016-04-04T03:59:54.859Z,0
2016-04-04T04:00:54.784Z,0
2016-04-04T04:01:54.740Z,0
2016-04-04T04:02:54.695Z,0
2016-04-04T04:03:54.542Z,0
2016-04-04T04:04:54.655Z,0
2016-04-04T04:05:54.548Z,0
2016-04-04T04:06:54.504Z,0
2016-04-04T04:07:54.476Z,0
2016-04-04T04:08:54.400Z,0
2016-04-04T04:09:54.356Z,0
2016-04-04T04:10:54.328Z,0
2016-04-04T04:11:54.236Z,0
2016-04-04T04:12:54.223Z,0
2016-04-04T04:13:54.133Z,0
2016-04-04T04:14:54.104Z,0
2016-04-04T04:15:54.060Z,0
2016-04-04T04:16:54.031Z,0
2016-04-04T04:17:53.972Z,0
2016-04-04T04:18:53.911Z,0
2016-04-04T04:19:53.852Z,0
2016-04-04T04:20:53.791Z,0
2016-04-04T04:21:53.733Z,0
2016-04-04T04:22:53.719Z,0
2016-04-04T04:23:53.659Z,0
2016-04-04T04:24:53.616Z,0
2016-04-04T04:25:53.571Z,0
2016-04-04T04:26:53.511Z,0
2016-04-04T04:27:53.451Z,0
2016-04-04T04:28:53.408Z,0
2016-04-04T04:29:53.379Z,0
2016-04-04T04:30:53.318Z,0
2016-04-04T04:31:53.274Z,0
2016-04-04T04:32:53.214Z,0
2016-04-04T04:33:53.155Z,0
2016-04-04T04:34:52.954Z,0
2016-04-04T04:35:53.051Z,0
2016-04-04T04:36:53.038Z,0
2016-04-04T04:37:52.994Z,0
2016-04-04T04:38:52.918Z,4
2016-04-04T04:39:52.889Z,4
2016-04-04T04:40:52.799Z,0
2016-04-04T04:41:52.770Z,0
2016-04-04T04:42:52.711Z,4
2016-04-04T04:43:52.697Z,4
2016-04-04T04:44:52.606Z,4
2016-04-04T04:45:52.547Z,4
2016-04-04T04:46:52.502Z,4
2016-04-04T04:47:52.505Z,4
2016-04-04T04:48:52.445Z,4
2016-04-04T04:49:52.402Z,4
2016-04-04T04:50:52.310Z,8
2016-04-04T04:51:52.235Z,8
2016-04-04T04:52:52.222Z,8
2016-04-04T04:53:52.162Z,8
2016-04-04T04:54:52.118Z,8
2016-04-04T04:55:52.088Z,8
2016-04-04T04:56:52.029Z,12
2016-04-04T04:57:51.985Z,12
2016-04-04T04:58:51.910Z,12
2016-04-04T04:59:51.865Z,16
2016-04-04T05:00:51.806Z,20
2016-04-04T05:01:51.746Z,20
2016-04-04T05:02:51.732Z,20
2016-04-04T05:03:51.658Z,20
2016-04-04T05:04:51.754Z,24
2016-04-04T05:05:51.554Z,24
2016-04-04T05:06:51.540Z,24
2016-04-04T05:07:51.481Z,24
2016-04-04T05:08:51.406Z,24
2016-04-04T05:09:51.361Z,28
2016-04-04T05:10:51.301Z,28
2016-04-04T05:11:51.288Z,28
2016-04-04T05:12:51.214Z,32
2016-04-04T05:13:51.169Z,32
2016-04-04T05:14:51.124Z,32
2016-04-04T05:15:51.081Z,36
2016-04-04T05:16:51.037Z,36
2016-04-04T05:17:50.992Z,36
2016-04-04T05:18:50.916Z,40
2016-04-04T05:19:51.045Z,40
2016-04-04T05:20:50.828Z,40
2016-04-04T05:21:50.752Z,40
2016-04-04T05:22:50.708Z,40
2016-04-04T05:23:50.699Z,40
2016-04-04T05:24:50.621Z,40
2016-04-04T05:25:50.544Z,40
2016-04-04T05:26:50.552Z,44
2016-04-04T05:27:52.457Z,44
2016-04-04T05:28:50.427Z,48
2016-04-04T05:29:50.368Z,48
2016-04-04T05:30:50.340Z,48
2016-04-04T05:31:50.296Z,52
2016-04-04T05:32:50.251Z,52
2016-04-04T05:33:50.160Z,52
2016-04-04T05:34:50.256Z,56
2016-04-04T05:35:50.056Z,56
2016-04-04T05:36:50.043Z,60
2016-04-04T05:37:49.968Z,60
2016-04-04T05:38:49.940Z,64
2016-04-04T05:39:49.879Z,60
2016-04-04T05:40:49.820Z,60
2016-04-04T05:41:49.775Z,64
2016-04-04T05:42:49.575Z,64
2016-04-04T05:43:49.687Z,64
2016-04-04T05:44:49.658Z,68
2016-04-04T05:45:49.584Z,64
2016-04-04T05:46:49.570Z,68
2016-04-04T05:47:49.479Z,68
2016-04-04T05:48:49.420Z,72
2016-04-04T05:49:49.266Z,72
2016-04-04T05:50:49.316Z,72
2016-04-04T05:51:49.318Z,80
2016-04-04T05:52:49.227Z,84
2016-04-04T05:53:49.166Z,84
2016-04-04T05:54:49.123Z,88
2016-04-04T05:55:49.079Z,92
2016-04-04T05:56:49.065Z,96
2016-04-04T05:57:48.991Z,100
2016-04-04T05:58:48.931Z,100
2016-04-04T05:59:48.871Z,104
2016-04-04T06:00:48.873Z,104
2016-04-04T06:01:48.813Z,108
2016-04-04T06:02:48.723Z,112
2016-04-04T06:03:48.537Z,120
2016-04-04T06:04:48.915Z,124
2016-04-04T06:05:48.574Z,132
2016-04-04T06:06:48.530Z,144
2016-04-04T06:07:48.532Z,152
2016-04-04T06:08:48.442Z,160
2016-04-04T06:09:48.382Z,168
2016-04-04T06:10:48.337Z,176
2016-04-04T06:11:48.309Z,188
2016-04-04T06:12:48.234Z,200
2016-04-04T06:13:48.205Z,208
2016-04-04T06:14:48.130Z,216
2016-04-04T06:15:48.086Z,228
2016-04-04T06:16:48.056Z,236
2016-04-04T06:17:47.981Z,248
2016-04-04T06:18:47.937Z,264
2016-04-04T06:19:48.019Z,284
2016-04-04T06:20:47.849Z,312
2016-04-04T06:21:47.805Z,332
2016-04-04T06:22:47.745Z,348
2016-04-04T06:23:47.700Z,360
2016-04-04T06:24:47.625Z,372
2016-04-04T06:25:47.596Z,384
2016-04-04T06:26:47.537Z,388
2016-04-04T06:27:47.477Z,396
2016-04-04T06:28:47.448Z,404
2016-04-04T06:29:47.405Z,408
2016-04-04T06:30:47.344Z,416
2016-04-04T06:31:47.301Z,428
2016-04-04T06:32:47.240Z,436
2016-04-04T06:33:47.228Z,440
2016-04-04T06:34:47.293Z,452
2016-04-04T06:35:47.092Z,464
2016-04-04T06:36:47.096Z,472
2016-04-04T06:37:47.020Z,484
2016-04-04T06:38:46.976Z,496
2016-04-04T06:39:46.900Z,504
2016-04-04T06:40:46.871Z,516
2016-04-04T06:41:46.812Z,528
2016-04-04T06:42:46.767Z,540
2016-04-04T06:43:46.723Z,552
2016-04-04T06:44:46.648Z,560
2016-04-04T06:45:46.620Z,572
2016-04-04T06:46:46.575Z,584
2016-04-04T06:47:46.515Z,600
2016-04-04T06:48:46.487Z,620
2016-04-04T06:49:46.411Z,640
2016-04-04T06:50:46.383Z,636
2016-04-04T06:51:46.354Z,664
2016-04-04T06:52:46.278Z,668
2016-04-04T06:53:46.235Z,664
2016-04-04T06:54:46.206Z,664
2016-04-04T06:55:46.146Z,668
2016-04-04T06:56:45.336Z,684
2016-04-04T06:57:46.042Z,692
2016-04-04T06:58:45.982Z,696
2016-04-04T06:59:45.954Z,712
2016-04-04T07:00:45.883Z,732
2016-04-04T07:01:45.824Z,732
2016-04-04T07:02:45.795Z,728
2016-04-04T07:03:45.751Z,732
2016-04-04T07:04:45.768Z,748
2016-04-04T07:05:45.647Z,756
2016-04-04T07:06:45.603Z,744
2016-04-04T07:07:45.574Z,736
2016-04-04T07:08:45.561Z,736
2016-04-04T07:09:45.470Z,752
2016-04-04T07:10:45.425Z,768
2016-04-04T07:11:45.381Z,792
2016-04-04T07:12:45.322Z,804
2016-04-04T07:13:45.277Z,812
2016-04-04T07:14:45.234Z,824
2016-04-04T07:15:45.158Z,828
2016-04-04T07:16:45.113Z,836
2016-04-04T07:17:45.053Z,836
2016-04-04T07:18:45.010Z,852
2016-04-04T07:19:45.059Z,844
2016-04-04T07:20:44.921Z,852
2016-04-04T07:21:44.894Z,872
2016-04-04T07:22:44.833Z,868
2016-04-04T07:23:44.789Z,864
2016-04-04T07:24:44.729Z,876
2016-04-04T07:25:44.700Z,876
2016-04-04T07:26:44.641Z,872
2016-04-04T07:27:44.613Z,852
2016-04-04T07:28:44.583Z,836
2016-04-04T07:29:44.507Z,804
2016-04-04T07:30:44.464Z,792
2016-04-04T07:31:44.421Z,768
2016-04-04T07:32:44.360Z,752
2016-04-04T07:33:44.300Z,744
2016-04-04T07:34:44.272Z,732
2016-04-04T07:35:44.273Z,704
2016-04-04T07:36:44.168Z,692
2016-04-04T07:37:44.170Z,680
2016-04-04T07:38:44.110Z,660
2016-04-04T07:39:44.051Z,656
2016-04-04T07:40:43.976Z,656
2016-04-04T07:41:43.947Z,664
2016-04-04T07:42:43.886Z,660
2016-04-04T07:43:43.828Z,680
2016-04-04T07:44:43.815Z,696
2016-04-04T07:45:43.754Z,708
2016-04-04T07:46:43.694Z,708
2016-04-04T07:47:43.650Z,704
2016-04-04T07:48:43.591Z,696
2016-04-04T07:49:43.469Z,676
2016-04-04T07:50:43.517Z,660
2016-04-04T07:51:43.474Z,656
2016-04-04T07:52:43.429Z,644
2016-04-04T07:53:43.386Z,648
2016-04-04T07:54:43.325Z,636
2016-04-04T07:55:43.280Z,632
2016-04-04T07:56:43.238Z,616
2016-04-04T07:57:43.208Z,600
2016-04-04T07:58:43.149Z,596
2016-04-04T07:59:43.088Z,580
2016-04-04T08:00:43.044Z,572
2016-04-04T08:01:42.984Z,576
2016-04-04T08:02:42.941Z,576
2016-04-04T08:03:42.912Z,588
2016-04-04T08:04:42.899Z,600
2016-04-04T08:05:42.808Z,600
2016-04-04T08:06:42.765Z,612
2016-04-04T08:07:42.704Z,616
2016-04-04T08:08:42.644Z,612
2016-04-04T08:09:42.615Z,612
2016-04-04T08:10:42.587Z,612
2016-04-04T08:11:42.512Z,608
2016-04-04T08:12:42.467Z,604
2016-04-04T08:13:42.423Z,608
2016-04-04T08:14:42.363Z,604
2016-04-04T08:15:42.553Z,608
2016-04-04T08:16:42.306Z,604
2016-04-04T08:17:42.231Z,608
2016-04-04T08:18:42.187Z,612
2016-04-04T08:19:42.174Z,616
2016-04-04T08:20:42.114Z,616
2016-04-04T08:21:42.039Z,624
2016-04-04T08:22:41.994Z,628
2016-04-04T08:23:41.950Z,632
2016-04-04T08:24:41.922Z,636
2016-04-04T08:25:41.862Z,644
2016-04-04T08:26:41.818Z,652
2016-04-04T08:27:41.774Z,660
2016-04-04T08:28:41.729Z,676
2016-04-04T08:29:41.686Z,704
2016-04-04T08:30:41.610Z,732
2016-04-04T08:31:41.582Z,776
2016-04-04T08:32:41.552Z,804
2016-04-04T08:33:41.467Z,844
2016-04-04T08:34:41.552Z,892
2016-04-04T08:35:41.355Z,928
2016-04-04T08:36:41.300Z,968
2016-04-04T08:37:41.211Z,996
2016-04-04T08:38:41.178Z,1028
2016-04-04T08:39:41.145Z,1060
2016-04-04T08:40:41.080Z,1080
2016-04-04T08:41:41.033Z,1108
2016-04-04T08:42:40.968Z,1140
2016-04-04T08:43:40.188Z,1160
2016-04-04T08:44:40.892Z,1188
2016-04-04T08:45:40.831Z,1208
2016-04-04T08:46:40.832Z,1232
2016-04-04T08:47:40.723Z,1264
2016-04-04T08:48:40.695Z,1296
2016-04-04T08:49:40.540Z,1332
2016-04-04T08:50:40.620Z,1356
2016-04-04T08:51:40.575Z,1384
2016-04-04T08:52:40.499Z,1408
2016-04-04T08:53:40.469Z,1440
2016-04-04T08:54:40.410Z,1472
2016-04-04T08:55:40.349Z,1504
2016-04-04T08:56:40.336Z,1540
2016-04-04T08:57:40.260Z,1568
2016-04-04T08:58:40.216Z,1600
2016-04-04T08:59:40.172Z,1636
2016-04-04T09:00:40.159Z,1704
2016-04-04T09:01:40.099Z,1812
2016-04-04T09:02:40.070Z,1916
2016-04-04T09:03:40.027Z,1980
2016-04-04T09:04:39.810Z,2024
2016-04-04T09:05:39.922Z,2064
2016-04-04T09:06:39.862Z,2112
2016-04-04T09:07:39.802Z,2140
2016-04-04T09:08:39.758Z,2144
2016-04-04T09:09:39.730Z,2104
2016-04-04T09:10:39.670Z,2056
2016-04-04T09:11:39.626Z,2040
2016-04-04T09:12:39.628Z,2076
2016-04-04T09:13:39.537Z,2128
2016-04-04T09:14:39.493Z,2204
2016-04-04T09:15:39.465Z,2272
2016-04-04T09:16:39.389Z,2332
2016-04-04T09:17:39.345Z,2368
2016-04-04T09:18:39.301Z,2304
2016-04-04T09:19:39.287Z,2392
2016-04-04T09:20:39.228Z,2396
2016-04-04T09:21:39.168Z,2400
2016-04-04T09:22:39.139Z,2416
2016-04-04T09:23:39.080Z,2428
2016-04-04T09:24:39.051Z,2400
2016-04-04T09:25:38.992Z,2432
2016-04-04T09:26:38.947Z,2168
2016-04-04T09:27:38.903Z,2276
2016-04-04T09:28:38.844Z,2344
2016-04-04T09:29:38.064Z,2660
2016-04-04T09:30:38.771Z,2112
2016-04-04T09:31:38.758Z,2344
2016-04-04T09:32:38.697Z,2876
2016-04-04T09:33:38.638Z,2844
2016-04-04T09:34:38.625Z,2740
2016-04-04T09:35:38.580Z,2828
2016-04-04T09:36:38.505Z,3032
2016-04-04T09:37:38.461Z,2912
2016-04-04T09:38:38.449Z,2608
2016-04-04T09:39:38.373Z,2672
2016-04-04T09:40:38.344Z,3220
2016-04-04T09:41:38.331Z,2512
2016-04-04T09:42:38.256Z,2784
2016-04-04T09:43:38.212Z,2512
2016-04-04T09:44:38.168Z,2684
2016-04-04T09:45:38.140Z,2452
2016-04-04T09:46:37.329Z,2900
2016-04-04T09:47:38.003Z,3076
2016-04-04T09:48:37.976Z,2548
2016-04-04T09:49:37.932Z,2736
2016-04-04T09:50:37.903Z,3024
2016-04-04T09:51:37.842Z,2628
2016-04-04T09:52:37.830Z,2432
2016-04-04T09:53:37.769Z,2488
2016-04-04T09:54:37.741Z,3092
2016-04-04T09:55:37.682Z,2628
2016-04-04T09:56:37.669Z,2600
2016-04-04T09:57:37.594Z,2472
2016-04-04T09:58:37.564Z,2280
2016-04-04T09:59:37.489Z,2292
2016-04-04T10:00:37.477Z,2652
2016-04-04T10:01:37.433Z,2264
2016-04-04T10:02:37.389Z,2012
2016-04-04T10:03:37.328Z,2184
2016-04-04T10:04:37.315Z,2560
2016-04-04T10:05:37.224Z,2348
2016-04-04T10:06:37.196Z,2064
2016-04-04T10:07:37.167Z,2572
2016-04-04T10:08:37.091Z,2712
2016-04-04T10:09:37.068Z,1860
2016-04-04T10:10:37.039Z,2388
2016-04-04T10:11:36.980Z,2768
2016-04-04T10:12:36.967Z,2892
2016-04-04T10:13:36.891Z,3044
2016-04-04T10:14:36.831Z,2964
2016-04-04T10:15:36.787Z,2732
2016-04-04T10:16:36.759Z,2760
2016-04-04T10:17:36.731Z,2816
2016-04-04T10:18:36.654Z,2788
2016-04-04T10:19:36.657Z,2748
2016-04-04T10:20:36.628Z,2736
2016-04-04T10:21:36.553Z,2812
2016-04-04T10:22:36.509Z,2940
2016-04-04T10:23:36.450Z,3048
2016-04-04T10:24:36.405Z,3100
2016-04-04T10:25:36.377Z,3088
2016-04-04T10:26:36.348Z,3064
2016-04-04T10:27:36.273Z,2992
2016-04-04T10:28:36.244Z,3032
2016-04-04T10:29:36.216Z,3064
2016-04-04T10:30:36.155Z,3104
2016-04-04T10:31:36.111Z,3092
2016-04-04T10:32:36.082Z,3100
2016-04-04T10:33:36.039Z,3164
2016-04-04T10:34:35.995Z,3328
2016-04-04T10:35:35.950Z,3500
2016-04-04T10:36:35.890Z,3444
2016-04-04T10:37:35.877Z,3308
2016-04-04T10:38:35.801Z,3316
2016-04-04T10:39:35.804Z,3352
2016-04-04T10:40:35.589Z,3500
2016-04-04T10:41:35.701Z,3528
2016-04-04T10:42:35.641Z,3576
2016-04-04T10:43:35.596Z,3640
2016-04-04T10:44:35.568Z,3672
2016-04-04T10:45:35.524Z,3608
2016-04-04T10:46:35.496Z,3496
2016-04-04T10:47:35.436Z,3396
2016-04-04T10:48:35.407Z,3212
2016-04-04T10:49:35.362Z,2804
2016-04-04T10:50:35.506Z,2284
2016-04-04T10:51:35.259Z,2508
2016-04-04T10:52:35.215Z,2428
2016-04-04T10:53:35.155Z,2336
2016-04-04T10:54:34.970Z,1880
2016-04-04T10:55:35.097Z,2100
2016-04-04T10:56:35.053Z,2260
2016-04-04T10:57:35.009Z,2252
2016-04-04T10:58:34.966Z,2268
2016-04-04T10:59:34.936Z,2224
2016-04-04T11:00:34.892Z,2232
2016-04-04T11:01:34.833Z,2256
2016-04-04T11:02:34.789Z,2236
2016-04-04T11:03:34.729Z,2216
2016-04-04T11:04:34.685Z,2164
2016-04-04T11:05:34.640Z,2132
2016-04-04T11:06:34.628Z,2072
2016-04-04T11:07:34.568Z,2020
2016-04-04T11:08:34.612Z,1980
2016-04-04T11:09:34.473Z,1964
2016-04-04T11:10:34.632Z,1964
2016-04-04T11:11:34.416Z,1948
2016-04-04T11:12:34.387Z,1948
2016-04-04T11:13:34.359Z,1928
2016-04-04T11:14:34.284Z,1920
2016-04-04T11:15:34.239Z,1912
2016-04-04T11:16:34.180Z,1908
2016-04-04T11:17:33.995Z,1912
2016-04-04T11:18:34.123Z,1904
2016-04-04T11:19:34.063Z,1896
2016-04-04T11:20:34.003Z,1880
2016-04-04T11:21:33.990Z,1868
2016-04-04T11:22:33.978Z,1844
2016-04-04T11:23:33.902Z,1828
2016-04-04T11:24:33.842Z,1820
2016-04-04T11:25:33.814Z,1816
2016-04-04T11:26:33.753Z,1820
2016-04-04T11:27:33.725Z,1836
2016-04-04T11:28:33.697Z,1852
2016-04-04T11:29:33.636Z,1876
2016-04-04T11:30:33.577Z,1876
2016-04-04T11:31:33.532Z,1864
2016-04-04T11:32:33.504Z,1860
2016-04-04T11:33:33.475Z,1856
2016-04-04T11:34:33.462Z,1852
2016-04-04T11:35:33.402Z,1832
2016-04-04T11:36:33.373Z,1816
2016-04-04T11:37:33.345Z,1800
2016-04-04T11:38:33.291Z,1800
2016-04-04T11:39:32.496Z,1816
2016-04-04T11:40:33.171Z,1808
2016-04-04T11:41:33.158Z,1820
2016-04-04T11:42:33.083Z,1820
2016-04-04T11:43:33.054Z,1820
2016-04-04T11:44:33.025Z,1832
2016-04-04T11:45:32.966Z,1824
2016-04-04T11:46:32.921Z,1796
2016-04-04T11:47:32.877Z,1744
2016-04-04T11:48:32.849Z,1724
2016-04-04T11:49:32.804Z,1724
2016-04-04T11:50:32.744Z,1716
2016-04-04T11:51:32.732Z,1712
2016-04-04T11:52:32.703Z,1692
2016-04-04T11:53:32.674Z,1672
2016-04-04T11:54:32.616Z,1656
2016-04-04T11:55:32.774Z,1660
2016-04-04T11:56:32.496Z,1668
2016-04-04T11:57:32.467Z,1684
2016-04-04T11:58:33.047Z,1684
2016-04-04T11:59:32.410Z,1688
2016-04-04T12:00:32.349Z,1688
2016-04-04T12:01:32.321Z,1664
2016-04-04T12:02:32.262Z,1652
2016-04-04T12:03:32.248Z,1656
2016-04-04T12:04:32.235Z,1664
2016-04-04T12:05:32.144Z,1656
2016-04-04T12:06:32.147Z,1676
2016-04-04T12:07:32.071Z,1688
2016-04-04T12:08:32.042Z,1692
2016-04-04T12:09:32.031Z,1700
2016-04-04T12:10:31.908Z,1708
2016-04-04T12:11:31.911Z,1720
2016-04-04T12:12:31.851Z,1732
2016-04-04T12:13:31.792Z,1708
2016-04-04T12:14:31.778Z,1680
2016-04-04T12:15:31.750Z,1668
2016-04-04T12:16:31.689Z,1632
2016-04-04T12:17:31.630Z,1604
2016-04-04T12:18:31.586Z,1600
2016-04-04T12:19:31.525Z,1568
2016-04-04T12:20:31.482Z,1532
2016-04-04T12:21:31.484Z,1536
2016-04-04T12:22:31.425Z,1532
2016-04-04T12:23:31.365Z,1528
2016-04-04T12:24:31.352Z,1520
2016-04-04T12:25:31.292Z,1500
2016-04-04T12:26:31.248Z,1488
2016-04-04T12:27:31.188Z,1480
2016-04-04T12:28:31.160Z,1476
2016-04-04T12:29:31.115Z,1468
2016-04-04T12:30:31.071Z,1464
2016-04-04T12:31:31.027Z,1460
2016-04-04T12:32:30.998Z,1444
2016-04-04T12:33:30.938Z,1436
2016-04-04T12:34:30.893Z,1424
2016-04-04T12:35:30.865Z,1420
2016-04-04T12:36:30.821Z,1416
2016-04-04T12:37:30.809Z,1412
2016-04-04T12:38:30.748Z,1396
2016-04-04T12:39:30.752Z,1384
2016-04-04T12:40:30.692Z,1376
2016-04-04T12:41:30.632Z,1360
2016-04-04T12:42:30.573Z,1348
2016-04-04T12:43:30.543Z,1340
2016-04-04T12:44:30.515Z,1328
2016-04-04T12:45:30.455Z,1320
2016-04-04T12:46:30.380Z,1316
2016-04-04T12:47:30.367Z,1292
2016-04-04T12:48:30.306Z,1280
2016-04-04T12:49:30.263Z,1280
2016-04-04T12:50:30.234Z,1276
2016-04-04T12:51:30.189Z,1276
2016-04-04T12:52:30.161Z,1272
2016-04-04T12:53:30.132Z,1268
2016-04-04T12:54:30.057Z,1252
2016-04-04T12:55:30.029Z,1256
2016-04-04T12:56:29.968Z,1252
2016-04-04T12:57:29.972Z,1244
2016-04-04T12:58:29.912Z,1236
2016-04-04T12:59:29.930Z,1228
2016-04-04T13:00:29.824Z,1216
2016-04-04T13:01:29.764Z,1192
2016-04-04T13:02:29.766Z,1168
2016-04-04T13:03:29.660Z,1192
2016-04-04T13:04:29.631Z,1180
2016-04-04T13:05:29.602Z,1176
2016-04-04T13:06:29.621Z,388
2016-04-04T13:07:29.592Z,372
2016-04-04T13:08:29.518Z,352
2016-04-04T13:09:29.442Z,352
2016-04-04T13:10:29.445Z,348
2016-04-04T13:11:29.385Z,344
2016-04-04T13:12:29.293Z,328
2016-04-04T13:13:29.249Z,320
2016-04-04T13:14:29.220Z,328
2016-04-04T13:15:29.176Z,320
2016-04-04T13:16:29.164Z,308
2016-04-04T13:17:29.119Z,296
2016-04-04T13:18:29.075Z,288
2016-04-04T13:19:29.047Z,292
2016-04-04T13:20:29.017Z,296
2016-04-04T13:21:28.911Z,272
2016-04-04T13:22:28.866Z,296
2016-04-04T13:23:28.822Z,296
2016-04-04T13:24:28.763Z,296
2016-04-04T13:25:28.750Z,296
2016-04-04T13:26:28.721Z,288
2016-04-04T13:27:28.506Z,200
2016-04-04T13:28:28.618Z,188
2016-04-04T13:29:29.339Z,196
2016-04-04T13:30:28.514Z,180
2016-04-04T13:31:28.469Z,180
2016-04-04T13:32:28.441Z,192
2016-04-04T13:33:28.397Z,184
2016-04-04T13:34:28.337Z,188
2016-04-04T13:35:28.308Z,188
2016-04-04T13:36:28.264Z,188
2016-04-04T13:37:28.220Z,184
2016-04-04T13:38:28.176Z,184
2016-04-04T13:39:28.131Z,180
2016-04-04T13:40:28.087Z,188
2016-04-04T13:41:28.073Z,180
2016-04-04T13:42:28.030Z,180
2016-04-04T13:43:28.033Z,172
2016-04-04T13:44:28.004Z,168
2016-04-04T13:45:27.881Z,164
2016-04-04T13:46:27.916Z,156
2016-04-04T13:47:27.840Z,168
2016-04-04T13:48:27.765Z,164
2016-04-04T13:49:27.721Z,160
2016-04-04T13:50:27.739Z,164
2016-04-04T13:51:27.633Z,160
2016-04-04T13:52:27.620Z,160
2016-04-04T13:53:27.575Z,144
2016-04-04T13:54:27.516Z,140
2016-04-04T13:55:27.455Z,120
2016-04-04T13:56:27.443Z,120
2016-04-04T13:57:27.399Z,124
2016-04-04T13:58:27.354Z,124